createdAt,value
2022-09-18T00:00:45.727Z,1005.95
2022-09-18T00:03:19.224Z,1005.97
2022-09-18T00:05:51.978Z,1005.98
2022-09-18T00:08:25.022Z,1005.98
2022-09-18T00:10:57.932Z,1005.99
2022-09-18T00:13:30.997Z,1006.00
2022-09-18T00:16:04.072Z,1006.02
2022-09-18T00:18:37.173Z,1006.01
2022-09-18T00:21:10.012Z,1006.01
2022-09-18T00:23:42.977Z,1006.01
2022-09-18T00:26:16.095Z,1006.01
2022-09-18T00:28:49.035Z,1006.00
2022-09-18T00:31:22.160Z,1006.01
2022-09-18T00:33:55.182Z,1006.00
2022-09-18T00:36:28.018Z,1005.99
2022-09-18T00:39:15.022Z,1005.99
2022-09-18T00:41:48.043Z,1005.99
2022-09-18T00:44:21.110Z,1005.98
2022-09-18T00:46:54.142Z,1005.97
2022-09-18T00:49:26.850Z,1005.97
2022-09-18T00:51:59.750Z,1005.97
2022-09-18T00:54:33.068Z,1005.96
2022-09-18T00:57:06.077Z,1005.94
2022-09-18T00:59:39.116Z,1005.93
2022-09-18T01:02:12.121Z,1005.92
2022-09-18T01:04:45.228Z,1005.91
2022-09-18T01:07:18.031Z,1005.91
2022-09-18T01:09:51.116Z,1005.93
2022-09-18T01:12:24.102Z,1005.94
2022-09-18T01:14:57.113Z,1005.94
2022-09-18T01:17:30.124Z,1005.93
2022-09-18T01:20:03.250Z,1005.93
2022-09-18T01:22:36.107Z,1005.92
2022-09-18T01:25:09.160Z,1005.92
2022-09-18T01:27:42.135Z,1005.92
2022-09-18T01:30:15.133Z,1005.92
2022-09-18T01:32:54.091Z,1005.92
2022-09-18T01:35:40.983Z,1005.93
2022-09-18T01:38:00.092Z,1005.94
2022-09-18T01:40:33.236Z,1005.95
2022-09-18T01:43:05.795Z,1005.95
2022-09-18T01:45:39.191Z,1005.96
2022-09-18T01:48:12.186Z,1005.96
2022-09-18T01:50:45.273Z,1005.96
2022-09-18T01:53:18.116Z,1005.97
2022-09-18T01:55:51.103Z,1005.98
2022-09-18T01:58:24.151Z,1005.98
2022-09-18T02:00:57.186Z,1005.98
2022-09-18T02:03:30.194Z,1005.98
2022-09-18T02:06:03.318Z,1005.98
2022-09-18T02:08:36.205Z,1005.97
2022-09-18T02:11:09.178Z,1005.94
2022-09-18T02:13:43.216Z,1005.94
2022-09-18T02:16:16.399Z,1005.94
2022-09-18T02:18:49.201Z,1005.95
2022-09-18T02:21:22.258Z,1005.95
2022-09-18T02:23:55.211Z,1005.92
2022-09-18T02:26:28.179Z,1005.90
2022-09-18T02:29:01.229Z,1005.88
2022-09-18T02:31:34.405Z,1005.87
2022-09-18T02:34:07.210Z,1005.85
2022-09-18T02:36:40.284Z,1005.83
2022-09-18T02:39:13.267Z,1005.82
2022-09-18T02:41:46.215Z,1005.82
2022-09-18T02:44:19.204Z,1005.80
2022-09-18T02:46:52.366Z,1005.80
2022-09-18T02:49:25.136Z,1005.80
2022-09-18T02:51:58.386Z,1005.81
2022-09-18T02:54:31.223Z,1005.81
2022-09-18T02:57:04.235Z,1005.80
2022-09-18T02:59:37.235Z,1005.80
2022-09-18T03:02:10.405Z,1005.82
2022-09-18T03:04:43.288Z,1005.82
2022-09-18T03:07:22.382Z,1005.82
2022-09-18T03:09:55.249Z,1005.83
2022-09-18T03:12:28.257Z,1005.80
2022-09-18T03:15:01.182Z,1005.79
2022-09-18T03:17:33.930Z,1005.77
2022-09-18T03:20:07.203Z,1005.76
2022-09-18T03:22:40.368Z,1005.78
2022-09-18T03:25:13.305Z,1005.78
2022-09-18T03:27:46.430Z,1005.78
2022-09-18T03:30:20.303Z,1005.76
2022-09-18T03:32:53.285Z,1005.73
2022-09-18T03:35:26.309Z,1005.72
2022-09-18T03:37:59.408Z,1005.71
2022-09-18T03:40:32.306Z,1005.70
2022-09-18T03:43:05.237Z,1005.71
2022-09-18T03:45:38.236Z,1005.73
2022-09-18T03:48:11.271Z,1005.72
2022-09-18T03:50:44.160Z,1005.72
2022-09-18T03:53:17.389Z,1005.73
2022-09-18T03:55:50.321Z,1005.72
2022-09-18T03:58:23.310Z,1005.71
2022-09-18T04:00:56.348Z,1005.70
2022-09-18T04:03:32.304Z,1005.69
2022-09-18T04:06:05.341Z,1005.67
2022-09-18T04:08:38.422Z,1005.66
2022-09-18T04:11:11.317Z,1005.66
2022-09-18T04:13:44.364Z,1005.67
2022-09-18T04:16:17.473Z,1005.66
2022-09-18T04:18:50.381Z,1005.66
2022-09-18T04:21:23.311Z,1005.65
2022-09-18T04:23:56.404Z,1005.65
2022-09-18T04:26:29.371Z,1005.65
2022-09-18T04:29:02.323Z,1005.66
2022-09-18T04:31:35.447Z,1005.68
2022-09-18T04:34:08.357Z,1005.70
2022-09-18T04:36:41.346Z,1005.72
2022-09-18T04:39:14.367Z,1005.73
2022-09-18T04:41:47.044Z,1005.72
2022-09-18T04:44:20.414Z,1005.70
2022-09-18T04:46:53.427Z,1005.69
2022-09-18T04:49:26.394Z,1005.68
2022-09-18T04:51:59.423Z,1005.67
2022-09-18T04:54:32.550Z,1005.68
2022-09-18T04:57:05.344Z,1005.68
2022-09-18T04:59:38.408Z,1005.69
2022-09-18T05:02:11.439Z,1005.71
2022-09-18T05:04:44.371Z,1005.72
2022-09-18T05:07:17.413Z,1005.73
2022-09-18T05:09:50.501Z,1005.74
2022-09-18T05:12:23.450Z,1005.77
2022-09-18T05:14:56.462Z,1005.79
2022-09-18T05:17:29.387Z,1005.80
2022-09-18T05:20:02.454Z,1005.81
2022-09-18T05:22:35.449Z,1005.83
2022-09-18T05:25:08.570Z,1005.85
2022-09-18T05:27:41.478Z,1005.89
2022-09-18T05:30:14.411Z,1005.90
2022-09-18T05:32:47.490Z,1005.92
2022-09-18T05:35:20.457Z,1005.94
2022-09-18T05:37:53.468Z,1005.96
2022-09-18T05:40:26.666Z,1005.97
2022-09-18T05:42:59.535Z,1005.98
2022-09-18T05:45:32.484Z,1005.98
2022-09-18T05:48:05.519Z,1005.97
2022-09-18T05:50:38.295Z,1005.98
2022-09-18T05:53:11.473Z,1005.99
2022-09-18T05:55:44.642Z,1006.00
2022-09-18T05:58:17.542Z,1006.00
2022-09-18T06:00:50.524Z,1006.02
2022-09-18T06:03:23.332Z,1006.00
2022-09-18T06:05:56.320Z,1006.00
2022-09-18T06:08:29.452Z,1006.00
2022-09-18T06:11:02.474Z,1006.00
2022-09-18T06:13:35.536Z,1006.01
2022-09-18T06:16:08.606Z,1006.01
2022-09-18T06:18:41.493Z,1006.01
2022-09-18T06:21:14.507Z,1006.03
2022-09-18T06:23:47.498Z,1006.04
2022-09-18T06:26:20.690Z,1006.04
2022-09-18T06:28:53.395Z,1006.03
2022-09-18T06:31:26.335Z,1006.01
2022-09-18T06:33:59.370Z,1006.01
2022-09-18T06:36:32.315Z,1006.01
2022-09-18T06:39:05.417Z,1006.03
2022-09-18T06:41:38.464Z,1006.03
2022-09-18T06:44:11.264Z,1006.04
2022-09-18T06:46:44.307Z,1006.06
2022-09-18T06:49:17.375Z,1006.08
2022-09-18T06:51:50.408Z,1006.10
2022-09-18T06:54:23.573Z,1006.10
2022-09-18T06:56:56.709Z,1006.11
2022-09-18T06:59:29.532Z,1006.12
2022-09-18T07:02:02.697Z,1006.13
2022-09-18T07:04:35.406Z,1006.13
2022-09-18T07:07:08.453Z,1006.14
2022-09-18T07:09:41.363Z,1006.15
2022-09-18T07:12:14.461Z,1006.15
2022-09-18T07:14:47.311Z,1006.18
2022-09-18T07:17:24.389Z,1006.20
2022-09-18T07:19:53.438Z,1006.20
2022-09-18T07:22:26.392Z,1006.21
2022-09-18T07:24:59.582Z,1006.21
2022-09-18T07:30:22.808Z,1006.24
2022-09-18T07:32:55.622Z,1006.23
2022-09-18T07:35:28.643Z,1006.25
2022-09-18T07:38:01.654Z,1006.26
2022-09-18T07:40:34.662Z,1006.28
2022-09-18T07:43:07.608Z,1006.28
2022-09-18T07:45:40.574Z,1006.28
2022-09-18T07:48:13.499Z,1006.29
2022-09-18T07:50:46.684Z,1006.28
2022-09-18T07:53:19.506Z,1006.27
2022-09-18T07:55:52.497Z,1006.26
2022-09-18T07:58:39.427Z,1006.26
2022-09-18T08:01:12.467Z,1006.27
2022-09-18T08:03:45.456Z,1006.28
2022-09-18T08:06:18.363Z,1006.29
2022-09-18T08:08:54.920Z,1006.30
2022-09-18T08:11:24.434Z,1006.32
2022-09-18T08:13:57.379Z,1006.34
2022-09-18T08:16:30.576Z,1006.34
2022-09-18T08:19:03.384Z,1006.35
2022-09-18T08:21:36.677Z,1006.37
2022-09-18T08:24:09.696Z,1006.36
2022-09-18T08:26:42.430Z,1006.37
2022-09-18T08:29:15.545Z,1006.38
2022-09-18T08:31:48.791Z,1006.38
2022-09-18T08:34:21.388Z,1006.36
2022-09-18T08:36:54.553Z,1006.34
2022-09-18T08:39:27.387Z,1006.34
2022-09-18T08:42:00.580Z,1006.34
2022-09-18T08:44:33.416Z,1006.34
2022-09-18T08:47:06.587Z,1006.33
2022-09-18T08:49:45.302Z,1006.33
2022-09-18T08:52:18.392Z,1006.33
2022-09-18T08:54:51.406Z,1006.33
2022-09-18T08:57:38.323Z,1006.32
2022-09-18T09:00:11.419Z,1006.30
2022-09-18T09:02:44.537Z,1006.28
2022-09-18T09:05:17.469Z,1006.29
2022-09-18T09:07:50.443Z,1006.31
2022-09-18T09:10:23.609Z,1006.33
2022-09-18T09:12:56.478Z,1006.33
2022-09-18T09:15:29.565Z,1006.33
2022-09-18T09:18:02.558Z,1006.34
2022-09-18T09:20:35.455Z,1006.34
2022-09-18T09:23:08.433Z,1006.35
2022-09-18T09:25:41.468Z,1006.34
2022-09-18T09:28:16.459Z,1006.34
2022-09-18T09:30:47.678Z,1006.33
2022-09-18T09:33:20.701Z,1006.33
2022-09-18T09:35:53.662Z,1006.32
2022-09-18T09:38:26.578Z,1006.32
2022-09-18T09:41:02.399Z,1006.31
2022-09-18T09:43:35.623Z,1006.29
2022-09-18T09:46:08.647Z,1006.28
2022-09-18T09:48:42.232Z,1006.28
2022-09-18T09:51:15.628Z,1006.29
2022-09-18T09:53:48.489Z,1006.28
2022-09-18T09:56:21.553Z,1006.27
2022-09-18T09:58:54.641Z,1006.25
2022-09-18T10:01:27.550Z,1006.21
2022-09-18T10:04:00.685Z,1006.20
2022-09-18T10:06:33.633Z,1006.16
2022-09-18T10:09:06.577Z,1006.13
2022-09-18T10:11:39.667Z,1006.12
2022-09-18T10:14:12.878Z,1006.12
2022-09-18T10:16:45.630Z,1006.14
2022-09-18T10:19:18.808Z,1006.14
2022-09-18T10:21:51.716Z,1006.12
2022-09-18T10:24:24.615Z,1006.11
2022-09-18T10:26:57.879Z,1006.10
2022-09-18T10:29:35.068Z,1006.10
2022-09-18T10:32:03.644Z,1006.10
2022-09-18T10:34:36.735Z,1006.09
2022-09-18T10:37:09.814Z,1006.09
2022-09-18T10:39:42.906Z,1006.09
2022-09-18T10:42:15.564Z,1006.09
2022-09-18T10:44:48.857Z,1006.08
2022-09-18T10:47:21.856Z,1006.07
2022-09-18T10:50:08.963Z,1006.07
2022-09-18T10:52:41.936Z,1006.07
2022-09-18T10:55:14.859Z,1006.08
2022-09-18T10:57:47.600Z,1006.08
2022-09-18T11:00:20.728Z,1006.09
2022-09-18T11:02:53.612Z,1006.09
2022-09-18T11:05:27.053Z,1006.07
2022-09-18T11:07:59.867Z,1006.06
2022-09-18T11:10:32.887Z,1006.02
2022-09-18T11:13:05.689Z,1005.98
2022-09-18T11:15:38.685Z,1005.98
2022-09-18T11:18:11.770Z,1005.98
2022-09-18T11:20:44.884Z,1005.98
2022-09-18T11:23:17.807Z,1005.97
2022-09-18T11:25:50.717Z,1005.96
2022-09-18T11:28:23.705Z,1005.93
2022-09-18T11:30:56.984Z,1005.89
2022-09-18T11:33:29.927Z,1005.86
2022-09-18T11:36:03.093Z,1005.80
2022-09-18T11:38:36.056Z,1005.79
2022-09-18T11:41:11.627Z,1005.75
2022-09-18T11:43:44.949Z,1005.72
2022-09-18T11:46:17.971Z,1005.72
2022-09-18T11:48:51.082Z,1005.71
2022-09-18T11:51:23.786Z,1005.68
2022-09-18T11:53:57.034Z,1005.66
2022-09-18T11:56:30.118Z,1005.66
2022-09-18T11:59:03.669Z,1005.63
2022-09-18T12:01:36.762Z,1005.61
2022-09-18T12:04:09.688Z,1005.56
2022-09-18T12:06:45.942Z,1005.54
2022-09-18T12:09:17.391Z,1005.51
2022-09-18T12:11:50.402Z,1005.51
2022-09-18T12:14:23.349Z,1005.49
2022-09-18T12:17:00.259Z,1005.48
2022-09-18T12:19:29.512Z,1005.46
2022-09-18T12:22:02.590Z,1005.44
2022-09-18T12:24:35.674Z,1005.43
2022-09-18T12:27:08.636Z,1005.41
2022-09-18T12:29:41.685Z,1005.40
2022-09-18T12:32:14.363Z,1005.38
2022-09-18T12:34:47.645Z,1005.36
2022-09-18T12:37:20.785Z,1005.33
2022-09-18T12:39:54.373Z,1005.31
2022-09-18T12:42:27.349Z,1005.30
2022-09-18T12:45:00.345Z,1005.28
2022-09-18T12:47:33.354Z,1005.26
2022-09-18T12:50:06.297Z,1005.25
2022-09-18T12:52:55.238Z,1005.24
2022-09-18T12:55:12.275Z,1005.21
2022-09-18T12:57:45.185Z,1005.18
2022-09-18T13:00:18.148Z,1005.18
2022-09-18T13:02:54.123Z,1005.15
2022-09-18T13:05:27.128Z,1005.12
2022-09-18T13:08:00.429Z,1005.09
2022-09-18T13:10:33.088Z,1005.05
2022-09-18T13:13:06.146Z,1005.03
2022-09-18T13:15:39.245Z,1005.03
2022-09-18T13:18:12.810Z,1005.03
2022-09-18T13:20:45.860Z,1005.03
2022-09-18T13:23:19.038Z,1005.01
2022-09-18T13:25:51.845Z,1005.01
2022-09-18T13:28:24.912Z,1005.01
2022-09-18T13:30:58.080Z,1004.99
2022-09-18T13:33:31.100Z,1004.98
2022-09-18T13:36:04.193Z,1004.97
2022-09-18T13:38:37.077Z,1004.94
2022-09-18T13:41:09.785Z,1004.92
2022-09-18T13:43:42.863Z,1004.89
2022-09-18T13:46:15.795Z,1004.86
2022-09-18T13:48:48.804Z,1004.83
2022-09-18T13:51:22.197Z,1004.82
2022-09-18T13:53:54.931Z,1004.80
2022-09-18T13:56:27.791Z,1004.78
2022-09-18T13:59:01.157Z,1004.77
2022-09-18T14:01:34.151Z,1004.77
2022-09-18T14:04:07.015Z,1004.76
2022-09-18T14:06:39.856Z,1004.73
2022-09-18T14:09:12.954Z,1004.71
2022-09-18T14:11:45.985Z,1004.70
2022-09-18T14:14:19.153Z,1004.69
2022-09-18T14:16:52.198Z,1004.67
2022-09-18T14:19:25.316Z,1004.66
2022-09-18T14:21:59.184Z,1004.64
2022-09-18T14:24:32.198Z,1004.65
2022-09-18T14:27:05.195Z,1004.65
2022-09-18T14:29:38.176Z,1004.64
2022-09-18T14:32:11.107Z,1004.63
2022-09-18T14:34:44.079Z,1004.60
2022-09-18T14:37:17.236Z,1004.58
2022-09-18T14:39:50.186Z,1004.57
2022-09-18T14:42:22.996Z,1004.57
2022-09-18T14:44:56.222Z,1004.55
2022-09-18T14:47:29.238Z,1004.53
2022-09-18T14:50:01.958Z,1004.51
2022-09-18T14:52:38.234Z,1004.50
2022-09-18T14:55:11.310Z,1004.47
2022-09-18T14:57:44.264Z,1004.45
2022-09-18T15:00:17.141Z,1004.43
2022-09-18T15:02:50.281Z,1004.42
2022-09-18T15:05:23.224Z,1004.41
2022-09-18T15:07:56.276Z,1004.39
2022-09-18T15:10:29.047Z,1004.36
2022-09-18T15:13:02.229Z,1004.34
2022-09-18T15:15:35.076Z,1004.33
2022-09-18T15:18:07.926Z,1004.30
2022-09-18T15:20:41.045Z,1004.28
2022-09-18T15:23:16.931Z,1004.24
2022-09-18T15:25:50.173Z,1004.22
2022-09-18T15:28:23.056Z,1004.18
2022-09-18T15:30:56.103Z,1004.15
2022-09-18T15:33:29.174Z,1004.13
2022-09-18T15:36:02.075Z,1004.12
2022-09-18T15:38:35.084Z,1004.09
2022-09-18T15:41:08.177Z,1004.09
2022-09-18T15:43:41.302Z,1004.07
2022-09-18T15:46:14.156Z,1004.06
2022-09-18T15:48:47.007Z,1004.07
2022-09-18T15:51:20.280Z,1004.06
2022-09-18T15:53:53.136Z,1004.08
2022-09-18T15:56:26.136Z,1004.08
2022-09-18T15:58:59.367Z,1004.09
2022-09-18T16:01:32.315Z,1004.08
2022-09-18T16:04:08.585Z,1004.08
2022-09-18T16:06:38.358Z,1004.07
2022-09-18T16:09:11.384Z,1004.06
2022-09-18T16:11:44.140Z,1004.07
2022-09-18T16:14:17.030Z,1004.09
2022-09-18T16:16:50.087Z,1004.12
2022-09-18T16:19:23.387Z,1004.13
2022-09-18T16:21:56.166Z,1004.14
2022-09-18T16:24:29.039Z,1004.14
2022-09-18T16:27:02.172Z,1004.12
2022-09-18T16:29:35.085Z,1004.12
2022-09-18T16:32:08.036Z,1004.10
2022-09-18T16:34:41.075Z,1004.09
2022-09-18T16:37:14.300Z,1004.08
2022-09-18T16:39:47.413Z,1004.06
2022-09-18T16:42:20.518Z,1004.05
2022-09-18T16:44:53.439Z,1004.02
2022-09-18T16:47:26.358Z,1004.00
2022-09-18T16:49:59.284Z,1003.97
2022-09-18T16:52:32.111Z,1003.98
2022-09-18T16:55:05.507Z,1003.97
2022-09-18T16:57:38.269Z,1003.95
2022-09-18T17:00:11.136Z,1003.94
2022-09-18T17:02:44.164Z,1003.93
2022-09-18T17:05:17.111Z,1003.93
2022-09-18T17:07:50.126Z,1003.93
2022-09-18T17:10:23.283Z,1003.92
2022-09-18T17:12:56.254Z,1003.92
2022-09-18T17:15:29.150Z,1003.92
2022-09-18T17:18:02.415Z,1003.91
2022-09-18T17:20:35.256Z,1003.92
2022-09-18T17:23:08.284Z,1003.92
2022-09-18T17:25:41.124Z,1003.93
2022-09-18T17:28:28.334Z,1003.94
2022-09-18T17:31:01.132Z,1003.93
2022-09-18T17:33:34.472Z,1003.93
2022-09-18T17:36:07.144Z,1003.91
2022-09-18T17:38:40.236Z,1003.91
2022-09-18T17:41:13.330Z,1003.91
2022-09-18T17:43:46.403Z,1003.89
2022-09-18T17:46:19.263Z,1003.87
2022-09-18T17:48:52.369Z,1003.87
2022-09-18T17:51:28.450Z,1003.85
2022-09-18T17:53:58.512Z,1003.81
2022-09-18T17:56:31.540Z,1003.81
2022-09-18T17:59:04.645Z,1003.81
2022-09-18T18:01:37.539Z,1003.80
2022-09-18T18:04:10.481Z,1003.80
2022-09-18T18:06:43.497Z,1003.80
2022-09-18T18:09:16.455Z,1003.77
2022-09-18T18:11:49.200Z,1003.76
2022-09-18T18:14:22.318Z,1003.76
2022-09-18T18:16:55.572Z,1003.77
2022-09-18T18:19:28.568Z,1003.79
2022-09-18T18:22:01.252Z,1003.81
2022-09-18T18:24:34.490Z,1003.83
2022-09-18T18:27:07.355Z,1003.83
2022-09-18T18:29:40.403Z,1003.84
2022-09-18T18:32:13.490Z,1003.86
2022-09-18T18:34:46.516Z,1003.87
2022-09-18T18:37:19.360Z,1003.91
2022-09-18T18:39:52.702Z,1003.92
2022-09-18T18:42:25.599Z,1003.92
2022-09-18T18:44:58.679Z,1003.94
2022-09-18T18:47:31.388Z,1003.94
2022-09-18T18:50:04.651Z,1003.94
2022-09-18T18:52:37.354Z,1003.92
2022-09-18T18:55:10.257Z,1003.91
2022-09-18T18:57:43.402Z,1003.90
2022-09-18T19:00:16.588Z,1003.89
2022-09-18T19:02:49.421Z,1003.88
2022-09-18T19:05:22.263Z,1003.89
2022-09-18T19:07:55.326Z,1003.89
2022-09-18T19:10:28.272Z,1003.88
2022-09-18T19:13:01.422Z,1003.89
2022-09-18T19:15:38.353Z,1003.91
2022-09-18T19:18:08.114Z,1003.91
2022-09-18T19:20:41.401Z,1003.91
2022-09-18T19:23:14.619Z,1003.91
2022-09-18T19:25:47.585Z,1003.90
2022-09-18T19:28:20.530Z,1003.91
2022-09-18T19:30:53.578Z,1003.92
2022-09-18T19:33:26.575Z,1003.93
2022-09-18T19:35:59.371Z,1003.95
2022-09-18T19:38:32.404Z,1003.97
2022-09-18T19:41:05.752Z,1003.99
2022-09-18T19:43:38.810Z,1004.01
2022-09-18T19:46:12.840Z,1004.06
2022-09-18T19:48:45.706Z,1004.09
2022-09-18T19:51:18.319Z,1004.15
2022-09-18T19:53:51.718Z,1004.21
2022-09-18T19:56:42.211Z,1004.24
2022-09-18T19:58:57.686Z,1004.28
2022-09-18T20:01:30.777Z,1004.32
2022-09-18T20:04:03.757Z,1004.34
2022-09-18T20:06:36.736Z,1004.38
2022-09-18T20:09:09.365Z,1004.41
2022-09-18T20:11:46.489Z,1004.42
2022-09-18T20:14:15.659Z,1004.43
2022-09-18T20:16:48.581Z,1004.46
2022-09-18T20:19:22.791Z,1004.48
2022-09-18T20:21:55.739Z,1004.50
2022-09-18T20:24:42.462Z,1004.50
2022-09-18T20:27:15.408Z,1004.53
2022-09-18T20:29:48.537Z,1004.58
2022-09-18T20:32:21.542Z,1004.70
2022-09-18T20:34:54.755Z,1004.81
2022-09-18T20:37:27.751Z,1004.91
2022-09-18T20:40:00.606Z,1004.96
2022-09-18T20:42:33.765Z,1005.04
2022-09-18T20:45:06.682Z,1005.07
2022-09-18T20:47:39.910Z,1005.11
2022-09-18T20:50:12.715Z,1005.17
2022-09-18T20:52:45.465Z,1005.22
2022-09-18T20:55:18.833Z,1005.25
2022-09-18T20:57:51.787Z,1005.29
2022-09-18T21:00:24.849Z,1005.33
2022-09-18T21:02:57.806Z,1005.35
2022-09-18T21:05:30.854Z,1005.36
2022-09-18T21:08:03.610Z,1005.38
2022-09-18T21:10:36.781Z,1005.40
2022-09-18T21:13:09.752Z,1005.45
2022-09-18T21:15:42.808Z,1005.49
2022-09-18T21:18:15.773Z,1005.53
2022-09-18T21:20:48.820Z,1005.52
2022-09-18T21:23:21.823Z,1005.52
2022-09-18T21:25:54.799Z,1005.53
2022-09-18T21:28:27.837Z,1005.50
2022-09-18T21:31:00.852Z,1005.46
2022-09-18T21:33:33.743Z,1005.45
2022-09-18T21:36:06.655Z,1005.41
2022-09-18T21:38:39.858Z,1005.36
2022-09-18T21:41:12.890Z,1005.37
2022-09-18T21:43:45.515Z,1005.36
2022-09-18T21:46:18.964Z,1005.39
2022-09-18T21:48:51.634Z,1005.38
2022-09-18T21:51:24.858Z,1005.41
2022-09-18T21:53:57.873Z,1005.43
2022-09-18T21:56:30.912Z,1005.46
2022-09-18T21:59:03.877Z,1005.49
2022-09-18T22:01:37.894Z,1005.52
2022-09-18T22:04:10.894Z,1005.57
2022-09-18T22:06:43.848Z,1005.60
2022-09-18T22:09:16.865Z,1005.64
2022-09-18T22:11:49.815Z,1005.68
2022-09-18T22:14:22.905Z,1005.71
2022-09-18T22:16:55.637Z,1005.73
2022-09-18T22:19:28.942Z,1005.73
2022-09-18T22:22:01.811Z,1005.73
2022-09-18T22:24:34.854Z,1005.73
2022-09-18T22:27:07.924Z,1005.72
2022-09-18T22:29:40.903Z,1005.70
2022-09-18T22:32:13.865Z,1005.70
2022-09-18T22:34:46.982Z,1005.69
2022-09-18T22:37:19.947Z,1005.68
2022-09-18T22:39:52.981Z,1005.69
2022-09-18T22:42:25.978Z,1005.71
2022-09-18T22:44:58.875Z,1005.73
2022-09-18T22:47:31.920Z,1005.74
2022-09-18T22:50:04.999Z,1005.75
2022-09-18T22:52:37.895Z,1005.76
2022-09-18T22:55:11.008Z,1005.77
2022-09-18T22:57:43.864Z,1005.80
2022-09-18T23:00:16.983Z,1005.81
2022-09-18T23:02:49.975Z,1005.80
2022-09-18T23:05:23.029Z,1005.81
2022-09-18T23:07:55.979Z,1005.82
2022-09-18T23:10:28.960Z,1005.82
2022-09-18T23:13:01.903Z,1005.84
2022-09-18T23:15:34.992Z,1005.86
2022-09-18T23:18:08.006Z,1005.89
2022-09-18T23:20:41.140Z,1005.91
2022-09-18T23:23:13.939Z,1005.91
2022-09-18T23:25:47.001Z,1005.91
2022-09-18T23:28:19.999Z,1005.90
2022-09-18T23:30:53.016Z,1005.90
2022-09-18T23:33:26.035Z,1005.89
2022-09-18T23:35:59.185Z,1005.89
2022-09-18T23:38:32.022Z,1005.88
2022-09-18T23:41:05.011Z,1005.88
2022-09-18T23:43:37.976Z,1005.88
2022-09-18T23:46:11.127Z,1005.92
2022-09-18T23:48:43.938Z,1005.95
2022-09-18T23:51:17.168Z,1005.97
2022-09-18T23:53:50.039Z,1006.00
2022-09-18T23:56:23.019Z,1006.03
2022-09-18T23:58:56.084Z,1006.04
